sensor_id;sensor_type;location;lat;lon;timestamp;P1;durP1;ratioP1;P2;durP2;ratioP2
25107;SDS011;13090;53.422;7.670;2023-03-15T00:02:06;6.25;;;1.90;;
25107;SDS011;13090;53.422;7.670;2023-03-15T00:07:08;7.25;;;1.70;;
25107;SDS011;13090;53.422;7.670;2023-03-15T00:12:10;8.05;;;1.83;;
25107;SDS011;13090;53.422;7.670;2023-03-15T00:17:14;5.80;;;1.80;;
25107;SDS011;13090;53.422;7.670;2023-03-15T00:22:16;10.02;;;2.20;;
25107;SDS011;13090;53.422;7.670;2023-03-15T00:27:18;8.55;;;1.77;;
25107;SDS011;13090;53.422;7.670;2023-03-15T00:32:22;4.90;;;1.50;;
25107;SDS011;13090;53.422;7.670;2023-03-15T00:37:24;4.35;;;1.73;;
25107;SDS011;13090;53.422;7.670;2023-03-15T00:42:27;8.98;;;1.90;;
25107;SDS011;13090;53.422;7.670;2023-03-15T00:47:31;8.32;;;1.77;;
25107;SDS011;13090;53.422;7.670;2023-03-15T00:52:34;7.47;;;1.67;;
25107;SDS011;13090;53.422;7.670;2023-03-15T00:57:36;12.95;;;2.58;;
25107;SDS011;13090;53.422;7.670;2023-03-15T01:02:40;11.00;;;1.70;;
25107;SDS011;13090;53.422;7.670;2023-03-15T01:07:43;6.20;;;1.70;;
25107;SDS011;13090;53.422;7.670;2023-03-15T01:12:45;12.85;;;1.83;;
25107;SDS011;13090;53.422;7.670;2023-03-15T01:17:48;7.40;;;1.60;;
25107;SDS011;13090;53.422;7.670;2023-03-15T01:22:51;7.85;;;1.30;;
25107;SDS011;13090;53.422;7.670;2023-03-15T01:27:53;9.30;;;1.70;;
25107;SDS011;13090;53.422;7.670;2023-03-15T01:32:57;4.80;;;1.75;;
25107;SDS011;13090;53.422;7.670;2023-03-15T01:37:59;3.55;;;1.40;;
25107;SDS011;13090;53.422;7.670;2023-03-15T01:43:11;10.18;;;2.17;;
25107;SDS011;13090;53.422;7.670;2023-03-15T01:48:17;5.55;;;1.60;;
25107;SDS011;13090;53.422;7.670;2023-03-15T01:53:23;6.90;;;1.60;;
25107;SDS011;13090;53.422;7.670;2023-03-15T01:58:28;4.50;;;1.58;;
25107;SDS011;13090;53.422;7.670;2023-03-15T02:03:33;7.88;;;1.42;;
25107;SDS011;13090;53.422;7.670;2023-03-15T02:08:38;4.68;;;1.40;;
25107;SDS011;13090;53.422;7.670;2023-03-15T02:13:44;3.95;;;1.63;;
25107;SDS011;13090;53.422;7.670;2023-03-15T02:18:50;7.38;;;1.45;;
25107;SDS011;13090;53.422;7.670;2023-03-15T02:23:53;8.90;;;1.63;;
25107;SDS011;13090;53.422;7.670;2023-03-15T02:29:06;4.25;;;1.50;;
25107;SDS011;13090;53.422;7.670;2023-03-15T02:34:08;5.00;;;1.80;;
25107;SDS011;13090;53.422;7.670;2023-03-15T02:39:12;6.07;;;1.23;;
25107;SDS011;13090;53.422;7.670;2023-03-15T02:44:18;2.10;;;1.23;;
25107;SDS011;13090;53.422;7.670;2023-03-15T02:49:24;6.05;;;1.50;;
25107;SDS011;13090;53.422;7.670;2023-03-15T02:54:30;7.25;;;1.45;;
25107;SDS011;13090;53.422;7.670;2023-03-15T02:59:33;4.85;;;1.50;;
25107;SDS011;13090;53.422;7.670;2023-03-15T03:04:36;4.53;;;1.73;;
25107;SDS011;13090;53.422;7.670;2023-03-15T03:09:38;6.03;;;1.40;;
25107;SDS011;13090;53.422;7.670;2023-03-15T03:14:42;4.22;;;1.50;;
25107;SDS011;13090;53.422;7.670;2023-03-15T03:19:44;3.53;;;1.13;;
25107;SDS011;13090;53.422;7.670;2023-03-15T03:24:46;6.57;;;1.30;;
25107;SDS011;13090;53.422;7.670;2023-03-15T03:29:50;6.13;;;1.55;;
25107;SDS011;13090;53.422;7.670;2023-03-15T03:34:52;10.00;;;1.73;;
25107;SDS011;13090;53.422;7.670;2023-03-15T03:39:54;7.00;;;1.80;;
25107;SDS011;13090;53.422;7.670;2023-03-15T03:44:57;4.15;;;1.17;;
25107;SDS011;13090;53.422;7.670;2023-03-15T03:50:00;4.78;;;1.30;;
25107;SDS011;13090;53.422;7.670;2023-03-15T03:55:02;3.75;;;1.55;;
25107;SDS011;13090;53.422;7.670;2023-03-15T04:00:07;6.18;;;1.42;;
25107;SDS011;13090;53.422;7.670;2023-03-15T04:05:12;4.97;;;1.35;;
25107;SDS011;13090;53.422;7.670;2023-03-15T04:10:14;6.25;;;1.50;;
25107;SDS011;13090;53.422;7.670;2023-03-15T04:15:18;7.00;;;1.50;;
25107;SDS011;13090;53.422;7.670;2023-03-15T04:20:20;7.07;;;1.15;;
25107;SDS011;13090;53.422;7.670;2023-03-15T04:25:23;3.53;;;1.10;;
25107;SDS011;13090;53.422;7.670;2023-03-15T04:30:26;3.33;;;1.13;;
25107;SDS011;13090;53.422;7.670;2023-03-15T04:35:30;2.50;;;1.00;;
25107;SDS011;13090;53.422;7.670;2023-03-15T04:40:34;6.10;;;1.05;;
25107;SDS011;13090;53.422;7.670;2023-03-15T04:45:38;13.48;;;1.65;;
25107;SDS011;13090;53.422;7.670;2023-03-15T04:50:40;11.52;;;1.38;;
25107;SDS011;13090;53.422;7.670;2023-03-15T04:55:42;8.13;;;1.33;;
25107;SDS011;13090;53.422;7.670;2023-03-15T05:00:46;5.15;;;1.33;;
25107;SDS011;13090;53.422;7.670;2023-03-15T05:05:49;10.95;;;1.45;;
25107;SDS011;13090;53.422;7.670;2023-03-15T05:10:51;5.25;;;1.30;;
25107;SDS011;13090;53.422;7.670;2023-03-15T05:15:55;5.75;;;1.52;;
25107;SDS011;13090;53.422;7.670;2023-03-15T05:20:58;6.97;;;1.08;;
25107;SDS011;13090;53.422;7.670;2023-03-15T05:26:00;6.40;;;0.90;;
25107;SDS011;13090;53.422;7.670;2023-03-15T05:31:04;4.97;;;1.00;;
25107;SDS011;13090;53.422;7.670;2023-03-15T05:36:06;4.28;;;1.00;;
25107;SDS011;13090;53.422;7.670;2023-03-15T05:41:08;4.35;;;1.08;;
25107;SDS011;13090;53.422;7.670;2023-03-15T05:46:12;2.25;;;0.68;;
25107;SDS011;13090;53.422;7.670;2023-03-15T05:51:14;5.03;;;1.40;;
25107;SDS011;13090;53.422;7.670;2023-03-15T05:56:16;2.47;;;1.00;;
25107;SDS011;13090;53.422;7.670;2023-03-15T06:01:20;5.75;;;1.20;;
25107;SDS011;13090;53.422;7.670;2023-03-15T06:06:22;8.70;;;1.30;;
25107;SDS011;13090;53.422;7.670;2023-03-15T06:11:26;7.88;;;1.40;;
25107;SDS011;13090;53.422;7.670;2023-03-15T06:16:29;6.68;;;0.98;;
25107;SDS011;13090;53.422;7.670;2023-03-15T06:21:31;5.95;;;1.60;;
25107;SDS011;13090;53.422;7.670;2023-03-15T06:26:34;8.73;;;1.48;;
25107;SDS011;13090;53.422;7.670;2023-03-15T06:31:38;7.88;;;2.40;;
25107;SDS011;13090;53.422;7.670;2023-03-15T06:36:40;4.88;;;1.55;;
25107;SDS011;13090;53.422;7.670;2023-03-15T06:41:42;7.30;;;2.67;;
25107;SDS011;13090;53.422;7.670;2023-03-15T06:46:46;5.70;;;2.85;;
25107;SDS011;13090;53.422;7.670;2023-03-15T06:51:48;8.02;;;2.85;;
25107;SDS011;13090;53.422;7.670;2023-03-15T06:56:50;6.78;;;2.40;;
25107;SDS011;13090;53.422;7.670;2023-03-15T07:01:54;7.40;;;2.33;;
25107;SDS011;13090;53.422;7.670;2023-03-15T07:06:56;4.70;;;1.80;;
25107;SDS011;13090;53.422;7.670;2023-03-15T07:11:58;8.07;;;1.98;;
25107;SDS011;13090;53.422;7.670;2023-03-15T07:17:01;4.50;;;1.38;;
25107;SDS011;13090;53.422;7.670;2023-03-15T07:22:04;3.17;;;1.40;;
25107;SDS011;13090;53.422;7.670;2023-03-15T07:27:06;5.22;;;1.40;;
25107;SDS011;13090;53.422;7.670;2023-03-15T07:32:17;3.60;;;1.20;;
25107;SDS011;13090;53.422;7.670;2023-03-15T07:37:19;4.95;;;1.17;;
25107;SDS011;13090;53.422;7.670;2023-03-15T07:42:21;5.25;;;1.60;;
25107;SDS011;13090;53.422;7.670;2023-03-15T07:47:25;2.53;;;1.25;;
25107;SDS011;13090;53.422;7.670;2023-03-15T07:52:28;5.30;;;1.27;;
25107;SDS011;13090;53.422;7.670;2023-03-15T07:57:31;5.05;;;1.55;;
25107;SDS011;13090;53.422;7.670;2023-03-15T08:02:35;5.55;;;1.33;;
25107;SDS011;13090;53.422;7.670;2023-03-15T08:07:39;6.82;;;1.48;;
25107;SDS011;13090;53.422;7.670;2023-03-15T08:12:42;5.72;;;1.58;;
25107;SDS011;13090;53.422;7.670;2023-03-15T08:17:47;4.97;;;1.30;;
25107;SDS011;13090;53.422;7.670;2023-03-15T08:22:50;5.50;;;1.30;;
25107;SDS011;13090;53.422;7.670;2023-03-15T08:27:52;7.88;;;1.17;;
25107;SDS011;13090;53.422;7.670;2023-03-15T08:32:56;2.13;;;1.15;;
25107;SDS011;13090;53.422;7.670;2023-03-15T08:37:59;5.50;;;1.88;;
25107;SDS011;13090;53.422;7.670;2023-03-15T08:43:02;6.57;;;2.60;;
25107;SDS011;13090;53.422;7.670;2023-03-15T08:48:07;6.07;;;1.55;;
25107;SDS011;13090;53.422;7.670;2023-03-15T08:53:10;4.10;;;1.25;;
25107;SDS011;13090;53.422;7.670;2023-03-15T08:58:16;0.40;;;0.40;;
25107;SDS011;13090;53.422;7.670;2023-03-15T09:03:22;2.90;;;1.00;;
25107;SDS011;13090;53.422;7.670;2023-03-15T09:08:25;3.10;;;1.08;;
25107;SDS011;13090;53.422;7.670;2023-03-15T09:13:27;3.22;;;0.88;;
25107;SDS011;13090;53.422;7.670;2023-03-15T09:18:31;3.22;;;1.05;;
25107;SDS011;13090;53.422;7.670;2023-03-15T09:23:34;4.88;;;1.30;;
25107;SDS011;13090;53.422;7.670;2023-03-15T09:28:38;4.50;;;1.10;;
25107;SDS011;13090;53.422;7.670;2023-03-15T09:33:42;1.95;;;1.00;;
25107;SDS011;13090;53.422;7.670;2023-03-15T09:38:45;26.48;;;11.68;;
25107;SDS011;13090;53.422;7.670;2023-03-15T09:43:57;13.60;;;5.50;;
25107;SDS011;13090;53.422;7.670;2023-03-15T09:49:13;7.43;;;2.88;;
25107;SDS011;13090;53.422;7.670;2023-03-15T09:54:21;7.60;;;3.95;;
25107;SDS011;13090;53.422;7.670;2023-03-15T09:59:30;5.53;;;2.60;;
25107;SDS011;13090;53.422;7.670;2023-03-15T10:09:43;4.13;;;1.90;;
25107;SDS011;13090;53.422;7.670;2023-03-15T10:14:52;2.45;;;1.27;;
25107;SDS011;13090;53.422;7.670;2023-03-15T10:20:04;4.30;;;1.50;;
25107;SDS011;13090;53.422;7.670;2023-03-15T10:25:10;2.95;;;1.50;;
25107;SDS011;13090;53.422;7.670;2023-03-15T10:30:17;3.42;;;2.10;;
25107;SDS011;13090;53.422;7.670;2023-03-15T10:35:23;14.90;;;5.65;;
25107;SDS011;13090;53.422;7.670;2023-03-15T10:40:40;19.08;;;9.82;;
25107;SDS011;13090;53.422;7.670;2023-03-15T10:45:46;5.68;;;2.28;;
25107;SDS011;13090;53.422;7.670;2023-03-15T10:51:02;11.63;;;5.10;;
25107;SDS011;13090;53.422;7.670;2023-03-15T10:56:10;3.03;;;1.25;;
25107;SDS011;13090;53.422;7.670;2023-03-15T11:01:27;2.03;;;1.00;;
25107;SDS011;13090;53.422;7.670;2023-03-15T11:06:36;3.63;;;0.90;;
25107;SDS011;13090;53.422;7.670;2023-03-15T11:11:50;1.75;;;0.80;;
25107;SDS011;13090;53.422;7.670;2023-03-15T11:16:55;5.95;;;2.28;;
25107;SDS011;13090;53.422;7.670;2023-03-15T11:22:01;3.08;;;1.00;;
25107;SDS011;13090;53.422;7.670;2023-03-15T11:27:08;3.42;;;1.02;;
25107;SDS011;13090;53.422;7.670;2023-03-15T11:32:17;2.65;;;1.80;;
25107;SDS011;13090;53.422;7.670;2023-03-15T11:37:30;4.18;;;1.38;;
25107;SDS011;13090;53.422;7.670;2023-03-15T11:42:36;4.28;;;1.50;;
25107;SDS011;13090;53.422;7.670;2023-03-15T11:47:51;2.83;;;0.80;;
25107;SDS011;13090;53.422;7.670;2023-03-15T11:53:02;3.20;;;0.95;;
25107;SDS011;13090;53.422;7.670;2023-03-15T11:58:27;2.90;;;1.00;;
25107;SDS011;13090;53.422;7.670;2023-03-15T12:03:36;1.47;;;0.80;;
25107;SDS011;13090;53.422;7.670;2023-03-15T12:08:49;6.18;;;2.45;;
25107;SDS011;13090;53.422;7.670;2023-03-15T12:14:01;3.67;;;1.40;;
25107;SDS011;13090;53.422;7.670;2023-03-15T12:19:09;4.57;;;1.65;;
25107;SDS011;13090;53.422;7.670;2023-03-15T12:24:21;4.30;;;1.20;;
25107;SDS011;13090;53.422;7.670;2023-03-15T12:29:27;4.18;;;1.17;;
25107;SDS011;13090;53.422;7.670;2023-03-15T12:39:59;2.10;;;1.08;;
25107;SDS011;13090;53.422;7.670;2023-03-15T12:56:41;6.90;;;1.48;;
25107;SDS011;13090;53.422;7.670;2023-03-15T13:01:48;5.85;;;1.50;;
25107;SDS011;13090;53.422;7.670;2023-03-15T13:07:03;11.25;;;1.70;;
25107;SDS011;13090;53.422;7.670;2023-03-15T13:12:27;8.05;;;1.30;;
25107;SDS011;13090;53.422;7.670;2023-03-15T13:17:40;5.60;;;1.50;;
25107;SDS011;13090;53.422;7.670;2023-03-15T13:22:54;4.65;;;1.20;;
25107;SDS011;13090;53.422;7.670;2023-03-15T13:28:09;4.70;;;1.88;;
25107;SDS011;13090;53.422;7.670;2023-03-15T13:33:26;4.97;;;1.50;;
25107;SDS011;13090;53.422;7.670;2023-03-15T13:38:37;7.35;;;1.65;;
25107;SDS011;13090;53.422;7.670;2023-03-15T13:43:43;3.72;;;1.13;;
25107;SDS011;13090;53.422;7.670;2023-03-15T13:48:53;5.40;;;1.10;;
25107;SDS011;13090;53.422;7.670;2023-03-15T13:53:59;5.18;;;1.25;;
25107;SDS011;13090;53.422;7.670;2023-03-15T13:59:09;3.97;;;1.10;;
25107;SDS011;13090;53.422;7.670;2023-03-15T14:04:51;5.40;;;1.02;;
25107;SDS011;13090;53.422;7.670;2023-03-15T14:09:41;7.53;;;1.38;;
25107;SDS011;13090;53.422;7.670;2023-03-15T14:14:53;2.95;;;1.38;;
25107;SDS011;13090;53.422;7.670;2023-03-15T14:20:03;2.75;;;1.40;;
25107;SDS011;13090;53.422;7.670;2023-03-15T14:25:20;5.85;;;1.60;;
25107;SDS011;13090;53.422;7.670;2023-03-15T14:30:55;6.78;;;1.15;;
25107;SDS011;13090;53.422;7.670;2023-03-15T14:36:03;9.27;;;1.73;;
25107;SDS011;13090;53.422;7.670;2023-03-15T14:41:28;6.60;;;1.48;;
25107;SDS011;13090;53.422;7.670;2023-03-15T14:46:37;6.03;;;1.33;;
25107;SDS011;13090;53.422;7.670;2023-03-15T14:51:40;6.88;;;1.50;;
25107;SDS011;13090;53.422;7.670;2023-03-15T14:56:46;3.80;;;1.30;;
25107;SDS011;13090;53.422;7.670;2023-03-15T15:01:52;2.85;;;1.30;;
25107;SDS011;13090;53.422;7.670;2023-03-15T15:07:05;6.28;;;1.58;;
25107;SDS011;13090;53.422;7.670;2023-03-15T15:12:11;10.43;;;1.50;;
25107;SDS011;13090;53.422;7.670;2023-03-15T15:17:16;6.32;;;1.30;;
25107;SDS011;13090;53.422;7.670;2023-03-15T15:22:19;5.05;;;1.27;;
25107;SDS011;13090;53.422;7.670;2023-03-15T15:27:43;5.25;;;1.45;;
25107;SDS011;13090;53.422;7.670;2023-03-15T15:32:50;5.57;;;2.00;;
25107;SDS011;13090;53.422;7.670;2023-03-15T15:37:55;10.33;;;1.30;;
25107;SDS011;13090;53.422;7.670;2023-03-15T15:42:58;6.00;;;1.35;;
25107;SDS011;13090;53.422;7.670;2023-03-15T15:48:05;7.35;;;1.30;;
25107;SDS011;13090;53.422;7.670;2023-03-15T15:53:09;10.02;;;1.45;;
25107;SDS011;13090;53.422;7.670;2023-03-15T15:58:19;8.20;;;1.40;;
25107;SDS011;13090;53.422;7.670;2023-03-15T16:03:31;7.95;;;1.45;;
25107;SDS011;13090;53.422;7.670;2023-03-15T16:09:20;4.93;;;1.52;;
25107;SDS011;13090;53.422;7.670;2023-03-15T16:14:28;5.38;;;1.60;;
25107;SDS011;13090;53.422;7.670;2023-03-15T16:19:34;3.28;;;1.15;;
25107;SDS011;13090;53.422;7.670;2023-03-15T16:24:37;2.70;;;1.25;;
25107;SDS011;13090;53.422;7.670;2023-03-15T16:29:42;5.00;;;1.40;;
25107;SDS011;13090;53.422;7.670;2023-03-15T16:35:00;4.32;;;1.23;;
25107;SDS011;13090;53.422;7.670;2023-03-15T16:40:15;10.55;;;1.60;;
25107;SDS011;13090;53.422;7.670;2023-03-15T16:50:33;6.95;;;1.95;;
25107;SDS011;13090;53.422;7.670;2023-03-15T16:55:36;8.48;;;2.20;;
25107;SDS011;13090;53.422;7.670;2023-03-15T17:00:39;7.00;;;1.77;;
25107;SDS011;13090;53.422;7.670;2023-03-15T17:05:43;11.85;;;2.40;;
25107;SDS011;13090;53.422;7.670;2023-03-15T17:10:47;6.07;;;1.60;;
25107;SDS011;13090;53.422;7.670;2023-03-15T17:15:49;6.57;;;1.50;;
25107;SDS011;13090;53.422;7.670;2023-03-15T17:20:53;4.93;;;1.35;;
25107;SDS011;13090;53.422;7.670;2023-03-15T17:25:55;13.95;;;6.07;;
25107;SDS011;13090;53.422;7.670;2023-03-15T17:31:00;9.60;;;4.88;;
25107;SDS011;13090;53.422;7.670;2023-03-15T17:36:24;20.88;;;8.23;;
25107;SDS011;13090;53.422;7.670;2023-03-15T17:41:30;12.15;;;5.57;;
25107;SDS011;13090;53.422;7.670;2023-03-15T17:46:34;14.85;;;7.30;;
25107;SDS011;13090;53.422;7.670;2023-03-15T17:51:38;12.73;;;4.90;;
25107;SDS011;13090;53.422;7.670;2023-03-15T17:56:40;13.65;;;2.97;;
25107;SDS011;13090;53.422;7.670;2023-03-15T18:01:42;21.63;;;9.63;;
25107;SDS011;13090;53.422;7.670;2023-03-15T18:06:46;10.70;;;3.95;;
25107;SDS011;13090;53.422;7.670;2023-03-15T18:11:48;9.57;;;3.60;;
25107;SDS011;13090;53.422;7.670;2023-03-15T18:16:51;7.85;;;1.92;;
25107;SDS011;13090;53.422;7.670;2023-03-15T18:21:54;15.82;;;4.93;;
25107;SDS011;13090;53.422;7.670;2023-03-15T18:26:56;17.67;;;8.05;;
25107;SDS011;13090;53.422;7.670;2023-03-15T18:31:59;12.93;;;5.95;;
25107;SDS011;13090;53.422;7.670;2023-03-15T18:37:02;27.70;;;12.52;;
25107;SDS011;13090;53.422;7.670;2023-03-15T18:42:04;13.50;;;4.30;;
25107;SDS011;13090;53.422;7.670;2023-03-15T18:47:07;10.93;;;4.72;;
25107;SDS011;13090;53.422;7.670;2023-03-15T18:52:11;12.80;;;4.82;;
25107;SDS011;13090;53.422;7.670;2023-03-15T18:57:14;13.45;;;5.00;;
25107;SDS011;13090;53.422;7.670;2023-03-15T19:02:17;16.85;;;4.75;;
25107;SDS011;13090;53.422;7.670;2023-03-15T19:07:20;15.68;;;5.30;;
25107;SDS011;13090;53.422;7.670;2023-03-15T19:12:23;12.93;;;4.70;;
25107;SDS011;13090;53.422;7.670;2023-03-15T19:17:25;10.05;;;4.57;;
25107;SDS011;13090;53.422;7.670;2023-03-15T19:22:29;8.73;;;4.20;;
25107;SDS011;13090;53.422;7.670;2023-03-15T19:27:31;12.25;;;4.97;;
25107;SDS011;13090;53.422;7.670;2023-03-15T19:32:33;9.57;;;5.13;;
25107;SDS011;13090;53.422;7.670;2023-03-15T19:37:37;19.08;;;6.65;;
25107;SDS011;13090;53.422;7.670;2023-03-15T19:42:39;27.52;;;12.50;;
25107;SDS011;13090;53.422;7.670;2023-03-15T19:47:41;13.45;;;6.00;;
25107;SDS011;13090;53.422;7.670;2023-03-15T19:52:44;14.48;;;6.15;;
25107;SDS011;13090;53.422;7.670;2023-03-15T19:57:47;16.50;;;8.23;;
25107;SDS011;13090;53.422;7.670;2023-03-15T20:02:49;19.73;;;10.45;;
25107;SDS011;13090;53.422;7.670;2023-03-15T20:07:52;25.00;;;9.30;;
25107;SDS011;13090;53.422;7.670;2023-03-15T20:12:54;18.17;;;9.85;;
25107;SDS011;13090;53.422;7.670;2023-03-15T20:17:57;15.98;;;8.73;;
25107;SDS011;13090;53.422;7.670;2023-03-15T20:23:00;28.20;;;12.63;;
25107;SDS011;13090;53.422;7.670;2023-03-15T20:28:02;17.85;;;9.80;;
25107;SDS011;13090;53.422;7.670;2023-03-15T20:33:05;20.13;;;9.63;;
25107;SDS011;13090;53.422;7.670;2023-03-15T20:38:09;23.00;;;10.15;;
25107;SDS011;13090;53.422;7.670;2023-03-15T20:43:11;31.05;;;10.52;;
25107;SDS011;13090;53.422;7.670;2023-03-15T20:48:13;20.77;;;10.27;;
25107;SDS011;13090;53.422;7.670;2023-03-15T20:53:17;16.52;;;8.85;;
25107;SDS011;13090;53.422;7.670;2023-03-15T20:58:19;17.40;;;8.30;;
25107;SDS011;13090;53.422;7.670;2023-03-15T21:03:22;22.60;;;12.80;;
25107;SDS011;13090;53.422;7.670;2023-03-15T21:08:25;15.77;;;6.80;;
25107;SDS011;13090;53.422;7.670;2023-03-15T21:13:28;14.98;;;6.65;;
25107;SDS011;13090;53.422;7.670;2023-03-15T21:18:32;10.70;;;5.28;;
25107;SDS011;13090;53.422;7.670;2023-03-15T21:23:37;15.15;;;6.78;;
25107;SDS011;13090;53.422;7.670;2023-03-15T21:28:39;14.82;;;6.47;;
25107;SDS011;13090;53.422;7.670;2023-03-15T21:33:42;16.50;;;7.07;;
25107;SDS011;13090;53.422;7.670;2023-03-15T21:38:45;13.55;;;6.03;;
25107;SDS011;13090;53.422;7.670;2023-03-15T21:43:49;14.48;;;5.63;;
25107;SDS011;13090;53.422;7.670;2023-03-15T21:48:56;12.60;;;5.18;;
25107;SDS011;13090;53.422;7.670;2023-03-15T21:54:03;14.55;;;5.07;;
25107;SDS011;13090;53.422;7.670;2023-03-15T21:59:07;10.27;;;4.57;;
25107;SDS011;13090;53.422;7.670;2023-03-15T22:04:09;11.48;;;5.03;;
25107;SDS011;13090;53.422;7.670;2023-03-15T22:09:13;16.30;;;5.93;;
25107;SDS011;13090;53.422;7.670;2023-03-15T22:14:15;11.88;;;5.50;;
25107;SDS011;13090;53.422;7.670;2023-03-15T22:19:18;11.90;;;5.15;;
25107;SDS011;13090;53.422;7.670;2023-03-15T22:24:21;10.57;;;5.45;;
25107;SDS011;13090;53.422;7.670;2023-03-15T22:29:23;12.65;;;4.18;;
25107;SDS011;13090;53.422;7.670;2023-03-15T22:34:26;9.35;;;4.50;;
25107;SDS011;13090;53.422;7.670;2023-03-15T22:39:30;6.85;;;4.22;;
25107;SDS011;13090;53.422;7.670;2023-03-15T22:44:32;7.65;;;4.47;;
25107;SDS011;13090;53.422;7.670;2023-03-15T22:49:34;11.70;;;4.47;;
25107;SDS011;13090;53.422;7.670;2023-03-15T22:54:38;14.48;;;4.70;;
25107;SDS011;13090;53.422;7.670;2023-03-15T22:59:40;9.02;;;4.60;;
25107;SDS011;13090;53.422;7.670;2023-03-15T23:04:42;8.45;;;4.13;;
25107;SDS011;13090;53.422;7.670;2023-03-15T23:09:46;11.45;;;4.07;;
25107;SDS011;13090;53.422;7.670;2023-03-15T23:14:48;9.43;;;4.10;;
25107;SDS011;13090;53.422;7.670;2023-03-15T23:19:50;8.18;;;3.88;;
25107;SDS011;13090;53.422;7.670;2023-03-15T23:24:54;6.25;;;3.58;;
25107;SDS011;13090;53.422;7.670;2023-03-15T23:29:56;8.57;;;3.53;;
25107;SDS011;13090;53.422;7.670;2023-03-15T23:34:58;7.38;;;3.10;;
25107;SDS011;13090;53.422;7.670;2023-03-15T23:40:02;8.25;;;3.22;;
25107;SDS011;13090;53.422;7.670;2023-03-15T23:45:05;10.38;;;3.42;;
25107;SDS011;13090;53.422;7.670;2023-03-15T23:50:09;8.85;;;3.33;;
25107;SDS011;13090;53.422;7.670;2023-03-15T23:55:13;6.43;;;2.80;;
